Logo AVAMET
Benvolgut visitant, si us plau, ingressa Recuperar contrasenya

Pedreguer Ocaive

Dades diàries. Acumulats / Últims 30 dies disponibles

Data Temperatura (°C) Humitat rel. (%) Pressió rel. (hPa) Vent (km/h) Precipitació
Mínima Mitjana Màxima Amplitud
tèrmica
Mínima Mitjana Màxima Mínima Mitjana Màxima Predom. Mitjana Ràfega
màxima
Total
(mm)
Índex-n
Mínima Mitjana Màxima Mínima Mitjana Màxima n
0 a 1
P0 max
mm 5'
Dades mensuals acumulades fins l'últim dia disponible
01/2020 3,2 5,8 9,4 9,6 7,7 14,5 19,3 16,1 35 81 97 1.014 1.029 1.035   2,6 67,6 25,2
Dades anuals acumulades fins l'últim dia disponible
2020 3,2 5,8 9,4 9,6 7,7 14,5 19,3 16,1 35 81 97 1.014 1.029 1.035   2,6 67,6 25,2
Últims 30 dies disponibles
19-01-2020 9,4     11,8     14,5 5,1 64 79 97 1.014 1.017 1.020 SSO 6,3 67,6 14,8 0,74 4,50
18-01-2020 8,1     12,6     18,9 10,8 48 69 81 1.021 1.028 1.033 SW 2,3 24,1 0,0
17-01-2020 8,3     14,5     19,3 11,0 35 53 79 1.028 1.029 1.032 SW 5,0 37,0 0,0
14-01-2020 4,6     5,8     7,7 3,1 64 68 73 1.023 1.023 1.024 SO 2,2 8,0 0,0
13-01-2020 3,2     8,8     17,3 14,1 40 67 88 1.023 1.026 1.031 SW 1,6 17,7 0,0
12-01-2020 3,6     7,2     12,8 9,2 56 81 92 1.030 1.031 1.032 SW 2,6 12,9 0,0
11-01-2020 6,2     9,6     13,2 7,0 63 82 93 1.029 1.031 1.033 SW 2,3 20,9 0,0
10-01-2020 6,0     10,0     14,0 8,0 64 84 94 1.024 1.026 1.029 SW 3,9 41,8 9,0 0,23 1,00
09-01-2020 6,4     10,1     14,2 7,8 76 88 95 1.025 1.028 1.031 SW 2,9 32,2 0,2
08-01-2020 5,1     9,3     14,7 9,6 76 89 96 1.029 1.031 1.032 SW 1,6 12,9 0,0
07-01-2020 6,1     9,6     16,1 10,0 73 90 97 1.029 1.031 1.033 SW 1,6 12,9 0,2
06-01-2020 5,8     10,0     14,5 8,7 74 86 96 1.028 1.030 1.031 SW 3,1 11,3 0,0
05-01-2020 5,6     9,2     15,3 9,7 62 79 90 1.028 1.030 1.032 SW 1,8 12,9 0,0
04-01-2020 5,8     9,0     14,7 8,9 61 84 95 1.032 1.033 1.035 SW 2,1 12,9 0,2
03-01-2020 4,8     8,9     14,0 9,2 78 92 97 1.030 1.032 1.034 SW 1,6 12,9 0,2
02-01-2020 4,9     8,0     12,9 8,0 85 93 97 1.031 1.032 1.034 SW 1,4 11,3 0,4
01-01-2020 5,5     8,7     13,0 7,5 83 92 96 1.032 1.033 1.035 SW 1,6 11,3 0,2
31-12-2019 5,4     9,3     12,6 7,2 82 91 97 1.033 1.033 1.035 S 1,2 12,9 0,2
30-12-2019 6,9     10,1     12,9 6,0 78 90 95 1.032 1.033 1.035 SW 1,0 9,7 0,0
29-12-2019 6,2     9,5     12,8 6,6 81 91 96 1.031 1.033 1.035 SW 1,0 11,3 0,2
28-12-2019 7,4     11,2     15,4 8,0 76 90 96 1.029 1.031 1.033 SW 1,4 12,9 0,0
27-12-2019 7,8     11,9     18,7 10,9 74 86 94 1.028 1.029 1.031 SW 1,8 9,7 0,0
26-12-2019 9,9     14,4     23,6 13,7 37 63 91 1.022 1.025 1.030 SW 2,1 17,7 0,0
25-12-2019 10,7     13,4     19,2 8,5 65 78 90 1.023 1.024 1.027 SW 2,3 9,7 0,0
24-12-2019 12,6     16,7     23,7 11,1 41 61 77 1.025 1.027 1.028 SW 3,7 16,1 0,0
23-12-2019 10,6     16,2     22,1 11,5 33 54 75 1.020 1.025 1.027 SW 3,5 24,1 0,0
22-12-2019 15,6     18,5     21,2 5,6 41 49 61 1.008 1.015 1.020 WSW 11,9 59,5 0,0
21-12-2019 19,1     21,8     24,4 5,3 28 57 70 1.001 1.004 1.009 SW 10,9 74,0 0,0
20-12-2019 15,7     19,4     21,7 6,0 51 62 71 1.001 1.004 1.009 SSW 10,8 78,9 0,0
19-12-2019 7,2     13,6     19,5 12,3 46 63 79 1.010 1.016 1.019 SW 4,7 37,0 0,0
Últims 13 mesos disponibles
12/2019 5,4 10,0 19,1 13,6 12,6 17,9 24,4 19,0 48 74 96 1.004 1.019 1.033 SW 4,4 78,9 182,2
11/2019 5,2 11,4 19,4 15,4 14,3 19,4 26,9 21,7 44 59 82 999 1.011 1.019 SW 6,8 66,0 8,0
10/2019 9,8 15,2 18,9 19,6 16,6 24,5 32,8 23,0 46 73 90 1.009 1.016 1.022 SW 3,4 59,5 95,2
09/2019 14,0 18,9 22,3 22,6 20,2 26,1 33,9 19,9 57 82 96 1.010 1.017 1.023 SW 4,7 67,6 129,0
08/2019 18,1 21,2 26,6 26,2 26,2 31,2 38,4 20,3 44 71 84 1.009 1.015 1.019 SW 5,0 51,5 109,0
07/2019 19,4 21,3 26,5 26,7 28,0 31,9 39,4 20,0 41 64 80 1.005 1.013 1.020 SW 5,8 74,0 0,4
06/2019 12,1 16,5 22,0 22,4 21,3 27,4 36,2 24,1 39 63 83 1.008 1.015 1.021 NE 5,5 45,1 1,0
05/2019 8,2 12,9 21,4 18,3 18,8 23,0 29,9 21,7 52 69 84 1.005 1.015 1.024 SW 5,2 59,5 11,4
04/2019 7,4 10,4 13,1 14,6 13,9 18,7 27,8 20,4 38 72 97 1.002 1.013 1.019 SW 5,8 56,3 199,2
03/2019 6,1 8,7 14,6 14,0 12,8 19,1 27,7 21,6 37 62 93 1.010 1.023 1.030 SW 4,6 57,9 58,0
02/2019 2,8 6,8 11,4 11,2 12,1 15,7 23,3 20,5 35 66 87 996 1.024 1.034 SW 4,7 64,4 0,0
01/2019 1,2 6,6 14,1 10,8 10,6 15,9 20,9 19,7 38 64 90 1.003 1.020 1.031 SW 4,6 59,5 6,4
12/2018 4,8 8,2 11,6 12,6 12,1 18,5 23,9 19,1 49 74 95 1.009 1.025 1.031 SW 2,7 53,1 36,6
Tots els anys disponibles
2019 1,2 13,4 26,6 18,1 10,6 22,8 39,4 38,2 35 68 99 996 1.017 1.034 SW 5,0 78,9 936,8
2018 0,7 13,7 25,9 18,2 7,8 22,8 36,4 35,7 40 74 95 1.000 1.019 1.031 SW 5,0 72,4 601,8
2017 0,6 13,3 26,7 18,1 8,1 22,9 37,1 36,5 4,9 77,2 633,0
2016 1,3 13,8 24,5 18,3 7,8 22,8 39,1 37,8 5,5 70,8 446,8
2015 0,8 14,4 25,3 18,9 8,3 23,6 40,7 39,9 5,1 99,8 490,0
Temperatura (°C)
Humitat relativa (%)
Velocitat del vent i ràfega màxima (km/h)
Direcció del vent (°)
Pressió (hPa)
Precipitació (mm)
Nota sobre les dades: s'avisa a l'usuari de la provisionalitat i no oficialitat d'aquestes dades
Logo AVAMET blanc
Web allotjada a Sollutia
Llicència de Creative CommonsLa web d'AVAMET i els seus continguts estan subjectes a una llicència de
Reconeixement - No Comercial - Compartir igual
Últimes estacions: Xixona - Els Ameradors (Soci), Agres - El Tossal (Soci), Xàbia - Bevenguts (MeteoXàbia), Llíria (Aj. Soci/Inforatge), Orihuela - Lo Capitán, Cox & Guardamar del Segura - horta (Meteorihuela), l'Alcúdia - Carriona & el Real de Gandia (Inforatge), Benicàssim - les Vil·les (Soci),  l'Alfàs del Pi - l'Albir (Soci), - - -